TimeCST,TemperatureF,Dew PointF,Humidity,Sea Level PressureIn,VisibilityMPH,Wind Direction,Wind SpeedMPH,Gust SpeedMPH,PrecipitationIn,Events,Conditions,WindDirDegrees,DateUTC
12:13 AM,18.7,14.0,82,30.02,10.0,WSW,12.7,-,N/A,,Clear,240,2013-01-04 06:13:00
12:33 AM,19.0,14.0,81,30.01,10.0,WSW,15.0,-,N/A,,Clear,240,2013-01-04 06:33:00
12:53 AM,18.9,13.8,81,30.02,10.0,WSW,15.0,-,N/A,,Clear,250,2013-01-04 06:53:00
1:13 AM,17.6,13.1,83,30.01,10.0,WSW,13.8,-,N/A,,Clear,240,2013-01-04 07:13:00
1:33 AM,18.0,13.3,82,30.00,10.0,WSW,15.0,-,N/A,,Clear,240,2013-01-04 07:33:00
1:53 AM,18.0,13.6,83,29.99,10.0,WSW,15.0,-,N/A,,Clear,240,2013-01-04 07:53:00
2:13 AM,18.1,13.5,82,29.99,10.0,WSW,13.8,-,N/A,,Clear,240,2013-01-04 08:13:00
2:33 AM,19.2,14.0,80,29.98,10.0,WSW,16.1,21.9,N/A,,Clear,240,2013-01-04 08:33:00
2:53 AM,18.9,13.8,81,29.98,10.0,WSW,13.8,-,N/A,,Clear,250,2013-01-04 08:53:00
3:13 AM,18.0,13.3,82,29.99,10.0,WSW,10.4,-,N/A,,Clear,250,2013-01-04 09:13:00
3:33 AM,17.4,12.7,82,29.98,10.0,WSW,9.2,-,N/A,,Clear,250,2013-01-04 09:33:00
3:53 AM,16.0,11.7,83,29.98,10.0,West,8.1,-,N/A,,Clear,260,2013-01-04 09:53:00
4:13 AM,15.1,11.3,85,29.97,10.0,West,8.1,-,N/A,,Clear,260,2013-01-04 10:13:00
4:33 AM,14.7,10.6,84,29.97,10.0,West,5.8,-,N/A,,Clear,260,2013-01-04 10:33:00
5:13 AM,15.8,11.3,82,29.98,10.0,West,9.2,-,N/A,,Clear,260,2013-01-04 11:13:00
5:33 AM,15.1,10.0,80,29.99,10.0,WSW,8.1,-,N/A,,Clear,250,2013-01-04 11:33:00
6:13 AM,14.5,9.9,82,30.00,10.0,WSW,6.9,-,N/A,,Clear,250,2013-01-04 12:13:00
6:33 AM,12.7,8.2,82,30.00,10.0,West,6.9,-,N/A,,Clear,260,2013-01-04 12:33:00
6:53 AM,12.7,8.1,82,30.01,10.0,WSW,8.1,-,N/A,,Clear,250,2013-01-04 12:53:00
7:13 AM,14.2,8.8,79,30.01,10.0,WSW,8.1,-,N/A,,Clear,250,2013-01-04 13:13:00
7:33 AM,11.8,7.5,83,30.01,10.0,West,5.8,-,N/A,,Clear,260,2013-01-04 13:33:00
7:53 AM,14.2,9.5,82,30.02,10.0,WSW,8.1,-,N/A,,Clear,240,2013-01-04 13:53:00
8:13 AM,13.5,8.4,80,30.02,10.0,WSW,5.8,-,N/A,,Clear,250,2013-01-04 14:13:00
8:33 AM,14.4,9.1,80,30.03,10.0,West,6.9,-,N/A,,Clear,260,2013-01-04 14:33:00
8:54 AM,14.9,9.3,79,30.03,10.0,West,6.9,-,N/A,,Clear,260,2013-01-04 14:54:00
9:13 AM,14.9,9.5,79,30.04,10.0,West,5.8,-,N/A,,Clear,260,2013-01-04 15:13:00
9:33 AM,16.5,10.4,77,30.05,10.0,West,6.9,-,N/A,,Clear,260,2013-01-04 15:33:00
9:53 AM,18.0,11.3,75,30.06,10.0,West,6.9,-,N/A,,Clear,260,2013-01-04 15:53:00
10:13 AM,19.0,12.0,74,30.06,10.0,West,5.8,-,N/A,,Clear,260,2013-01-04 16:13:00
10:33 AM,19.9,12.6,73,30.07,10.0,WSW,5.8,-,N/A,,Clear,250,2013-01-04 16:33:00
10:53 AM,20.8,13.1,72,30.07,10.0,WSW,8.1,-,N/A,,Clear,250,2013-01-04 16:53:00
11:13 AM,22.1,13.8,70,30.07,10.0,West,9.2,-,N/A,,Clear,260,2013-01-04 17:13:00
11:33 AM,22.6,14.0,69,30.07,10.0,West,8.1,-,N/A,,Clear,260,2013-01-04 17:33:00
11:53 AM,23.4,14.7,70,30.06,10.0,West,6.9,-,N/A,,Clear,260,2013-01-04 17:53:00
12:13 PM,24.3,15.1,68,30.06,10.0,WSW,4.6,-,N/A,,Clear,250,2013-01-04 18:13:00
12:33 PM,24.8,15.8,69,30.06,10.0,West,6.9,-,N/A,,Clear,260,2013-01-04 18:33:00
12:53 PM,25.5,16.3,68,30.05,10.0,West,6.9,-,N/A,,Clear,260,2013-01-04 18:53:00
1:13 PM,26.2,16.5,67,30.05,10.0,West,9.2,-,N/A,,Clear,260,2013-01-04 19:13:00
1:33 PM,26.6,16.9,67,30.05,10.0,West,5.8,-,N/A,,Clear,270,2013-01-04 19:33:00
1:53 PM,26.8,16.9,66,30.05,10.0,WNW,3.5,-,N/A,,Clear,300,2013-01-04 19:53:00
2:13 PM,27.5,16.5,63,30.05,10.0,West,4.6,-,N/A,,Clear,280,2013-01-04 20:13:00
2:33 PM,27.3,16.3,63,30.05,10.0,WNW,5.8,-,N/A,,Clear,290,2013-01-04 20:33:00
2:53 PM,26.8,16.3,65,30.06,10.0,Calm,Calm,-,N/A,,Clear,0,2013-01-04 20:53:00
3:13 PM,25.7,16.0,67,30.06,10.0,Calm,Calm,-,N/A,,Clear,0,2013-01-04 21:13:00
3:33 PM,24.8,16.2,70,30.07,10.0,SW,4.6,-,N/A,,Clear,230,2013-01-04 21:33:00
3:53 PM,23.5,15.4,71,30.08,10.0,Calm,Calm,-,N/A,,Clear,0,2013-01-04 21:53:00
4:13 PM,21.4,14.7,75,30.08,10.0,Calm,Calm,-,N/A,,Clear,0,2013-01-04 22:13:00
4:33 PM,24.3,15.8,70,30.08,10.0,Calm,Calm,-,N/A,,Clear,0,2013-01-04 22:33:00
5:33 PM,16.7,12.2,82,30.09,10.0,Calm,Calm,-,N/A,,Clear,0,2013-01-04 23:33:00
5:53 PM,16.7,12.4,83,30.09,10.0,Calm,Calm,-,N/A,,Clear,0,2013-01-04 23:53:00
6:13 PM,13.8,11.1,89,30.09,10.0,West,3.5,-,N/A,,Clear,270,2013-01-05 00:13:00
6:33 PM,12.9,9.9,88,30.08,10.0,Calm,Calm,-,N/A,,Clear,0,2013-01-05 00:33:00
6:53 PM,14.9,11.7,87,30.08,10.0,Calm,Calm,-,N/A,,Clear,0,2013-01-05 00:53:00
7:13 PM,11.7,8.6,88,30.08,10.0,Calm,Calm,-,N/A,,Clear,0,2013-01-05 01:13:00
7:33 PM,9.3,7.5,92,30.08,10.0,Calm,Calm,-,N/A,,Clear,0,2013-01-05 01:33:00
8:13 PM,7.0,4.3,89,30.08,10.0,Calm,Calm,-,N/A,,Clear,0,2013-01-05 02:13:00
8:33 PM,7.7,5.5,91,30.08,10.0,SSW,4.6,-,N/A,,Clear,200,2013-01-05 02:33:00
8:53 PM,11.3,9.0,90,30.08,10.0,Calm,Calm,-,N/A,,Clear,0,2013-01-05 02:53:00
9:13 PM,7.5,5.2,90,30.07,10.0,Calm,Calm,-,N/A,,Clear,0,2013-01-05 03:13:00
9:33 PM,8.6,6.4,91,30.06,10.0,Calm,Calm,-,N/A,,Clear,0,2013-01-05 03:33:00
9:53 PM,7.7,5.7,92,30.06,10.0,Calm,Calm,-,N/A,,Clear,0,2013-01-05 03:53:00
10:13 PM,7.7,5.7,92,30.06,10.0,Calm,Calm,-,N/A,,Clear,0,2013-01-05 04:13:00
10:33 PM,9.5,7.7,92,30.06,10.0,Calm,Calm,-,N/A,,Clear,0,2013-01-05 04:33:00
11:13 PM,3.7,0.7,87,30.06,10.0,Calm,Calm,-,N/A,,Clear,0,2013-01-05 05:13:00
11:33 PM,4.8,2.1,89,30.06,10.0,Calm,Calm,-,N/A,,Clear,0,2013-01-05 05:33:00
11:53 PM,6.1,3.4,89,30.05,10.0,Calm,Calm,-,N/A,,Clear,0,2013-01-05 05:53:00